Terminal Aerodrome Forecast
Issued by NWS Billings, MT

Home | Current Version | Previous Version | Text Only | Print | Product List | Glossary Off
Versions: 1 2 3 4 5 6 7 8 9 10 11 12 13 14 15 16 17 18

000
FTUS45 KBYZ 251934 AAA
TAFMLS
TAF AMD
KMLS 251934Z 2520/2618 32010KT P6SM VCTS SCT035 BKN060CB BKN100
     FM260200 25007KT P6SM VCSH BKN060 BKN100
     FM261500 30009KT P6SM FEW025 BKN050 BKN110=

USA.gov is the U.S. government's official web portal to all federal, state and local government web resources and services.